Time;durP1;ratioP1;P1;durP2;ratioP2;P2;SDS_P1;SDS_P2;PMS_P1;PMS_P2;Temp;Humidity;BMP_temperature;BMP_pressure;BME280_temperature;BME280_humidity;BME280_pressure;Samples;Min_cycle;Max_cycle;Signal;HPM_P1;HPM_P2
2022/08/08 00:02:52;;;;;;;6.75;2.45;;;12.40;99.90;;;;;;7329992;32;20179;-62
2022/08/08 00:07:03;;;;;;;5.62;2.25;;;12.40;99.90;;;;;;7343013;32;20196;-62
2022/08/08 00:11:31;;;;;;;6.40;2.37;;;12.30;99.90;;;;;;7337361;32;20171;-64
2022/08/08 00:16:06;;;;;;;5.90;2.33;;;12.20;99.90;;;;;;7338833;32;20121;-63
2022/08/08 00:20:13;;;;;;;5.28;2.25;;;12.20;99.90;;;;;;7332986;32;20362;-63
2022/08/08 00:24:29;;;;;;;4.80;2.65;;;12.20;99.90;;;;;;7329231;32;20226;-62
2022/08/08 00:28:45;;;;;;;3.83;2.65;;;12.10;99.90;;;;;;7331376;32;20195;-64
2022/08/08 00:32:47;;;;;;;4.45;2.87;;;12.00;99.90;;;;;;7344306;32;20669;-62
2022/08/08 00:37:02;;;;;;;4.32;2.60;;;12.00;99.90;;;;;;7336264;32;20343;-62
2022/08/08 00:42:01;;;;;;;5.12;2.62;;;12.00;99.90;;;;;;7334482;32;20222;-61
2022/08/08 00:46:25;;;;;;;4.55;2.83;;;12.00;99.90;;;;;;7331157;32;20209;-61
2022/08/08 00:50:50;;;;;;;3.62;3.08;;;11.90;99.90;;;;;;7333032;32;20206;-61
2022/08/08 00:55:32;;;;;;;5.45;3.03;;;11.90;99.90;;;;;;7336843;32;20107;-63
2022/08/08 01:00:22;;;;;;;4.45;2.83;;;11.80;99.90;;;;;;7338882;32;20891;-61
2022/08/08 01:04:38;;;;;;;6.32;2.78;;;11.80;99.90;;;;;;7338222;32;20248;-61
2022/08/08 01:09:11;;;;;;;8.05;2.78;;;11.70;99.90;;;;;;7323861;32;20251;-61
2022/08/08 01:14:24;;;;;;;6.68;3.37;;;11.60;99.90;;;;;;7340462;32;20217;-61
2022/08/08 01:18:59;;;;;;;5.72;2.90;;;11.60;99.90;;;;;;7255626;32;20166;-61
2022/08/08 01:23:33;;;;;;;4.72;3.33;;;11.60;99.90;;;;;;7316459;32;20252;-61
2022/08/08 01:28:49;;;;;;;8.60;3.87;;;11.50;99.90;;;;;;7336233;32;20216;-63
2022/08/08 01:33:13;;;;;;;5.20;3.45;;;11.50;99.90;;;;;;7284075;32;20759;-62
2022/08/08 01:37:43;;;;;;;5.15;3.10;;;11.40;99.90;;;;;;7334004;32;20122;-63
2022/08/08 01:42:21;;;;;;;6.60;3.70;;;11.30;99.90;;;;;;7338081;32;20269;-61
2022/08/08 01:47:06;;;;;;;7.55;3.58;;;11.30;99.90;;;;;;7339197;32;20325;-63
2022/08/08 01:51:58;;;;;;;4.72;3.53;;;11.30;99.90;;;;;;7338358;32;20448;-63
2022/08/08 01:56:36;;;;;;;3.70;2.95;;;11.30;99.90;;;;;;7339925;32;20099;-63
2022/08/08 02:01:03;;;;;;;6.65;3.40;;;11.20;99.90;;;;;;7343534;32;20108;-62
2022/08/08 02:05:47;;;;;;;4.82;3.55;;;11.20;99.90;;;;;;7339626;32;20285;-63
2022/08/08 02:10:26;;;;;;;6.90;3.50;;;11.20;99.90;;;;;;7341184;32;20301;-63
2022/08/08 02:14:44;;;;;;;4.90;3.75;;;11.20;99.90;;;;;;7347191;32;20133;-63
2022/08/08 02:19:18;;;;;;;5.50;3.83;;;11.20;99.90;;;;;;7339514;32;20138;-63
2022/08/08 02:23:46;;;;;;;5.18;3.78;;;11.10;99.90;;;;;;7347001;32;20189;-63
2022/08/08 02:28:07;;;;;;;4.28;3.40;;;11.00;99.90;;;;;;7335097;32;20377;-63
2022/08/08 02:32:34;;;;;;;7.28;4.00;;;11.00;99.90;;;;;;7341528;32;20292;-64
2022/08/08 02:36:45;;;;;;;5.32;3.65;;;11.00;99.90;;;;;;7345172;32;20111;-65
2022/08/08 02:41:38;;;;;;;5.72;3.78;;;11.00;99.90;;;;;;7341483;32;20241;-65
2022/08/08 02:46:25;;;;;;;5.30;3.78;;;10.90;99.90;;;;;;7274884;32;20203;-64
2022/08/08 02:50:46;;;;;;;7.47;3.40;;;10.90;99.90;;;;;;7335421;32;20230;-65
2022/08/08 02:55:16;;;;;;;4.87;3.42;;;10.80;99.90;;;;;;7338741;32;20178;-63
2022/08/08 02:59:39;;;;;;;8.27;3.80;;;10.80;99.90;;;;;;7337695;32;20103;-64
2022/08/08 03:04:25;;;;;;;4.45;3.72;;;10.80;99.90;;;;;;7342054;32;20099;-65
2022/08/08 03:08:56;;;;;;;4.80;3.58;;;10.70;99.90;;;;;;7343887;32;20122;-65
2022/08/08 03:13:41;;;;;;;7.72;4.37;;;10.70;99.90;;;;;;7337775;32;20194;-65
2022/08/08 03:18:27;;;;;;;5.47;3.70;;;10.70;99.90;;;;;;7337704;32;20140;-65
2022/08/08 03:22:32;;;;;;;7.35;3.95;;;10.70;99.90;;;;;;7342913;32;20203;-65
2022/08/08 03:27:04;;;;;;;6.32;3.95;;;10.60;99.90;;;;;;7341530;32;20256;-65
2022/08/08 03:35:50;;;;;;;7.47;3.92;;;10.50;99.90;;;;;;7338656;32;20146;-63
2022/08/08 03:39:54;;;;;;;8.10;4.10;;;10.50;99.90;;;;;;7340553;32;20213;-65
2022/08/08 03:44:03;;;;;;;7.15;4.07;;;10.40;99.90;;;;;;7341480;32;20131;-63
2022/08/08 03:48:08;;;;;;;7.00;4.37;;;10.40;99.90;;;;;;7341988;32;20203;-63
2022/08/08 03:52:23;;;;;;;10.43;3.55;;;10.40;99.90;;;;;;7344581;32;20115;-65
2022/08/08 03:56:32;;;;;;;5.60;3.95;;;10.50;99.90;;;;;;7342856;32;20141;-65
2022/08/08 04:00:35;;;;;;;7.73;4.13;;;10.40;99.90;;;;;;7343717;32;20116;-65
2022/08/08 04:05:05;;;;;;;5.70;4.00;;;10.40;99.90;;;;;;7344268;32;20125;-64
2022/08/08 04:09:15;;;;;;;5.90;4.18;;;10.40;99.90;;;;;;7344054;32;20135;-65
2022/08/08 04:13:21;;;;;;;4.90;3.65;;;10.30;99.90;;;;;;7341260;32;20213;-65
2022/08/08 04:17:24;;;;;;;7.50;4.37;;;10.30;99.90;;;;;;7339998;32;20452;-65
2022/08/08 04:21:45;;;;;;;5.30;3.72;;;10.30;99.90;;;;;;7338634;32;20164;-65
2022/08/08 04:25:49;;;;;;;6.45;3.60;;;10.40;99.90;;;;;;7344030;32;20143;-65
2022/08/08 04:29:50;;;;;;;5.05;3.67;;;10.40;99.90;;;;;;7339174;32;20130;-64
2022/08/08 04:34:12;;;;;;;4.87;3.65;;;10.40;99.90;;;;;;7341950;32;20479;-65
2022/08/08 04:38:14;;;;;;;5.22;4.00;;;10.40;99.90;;;;;;7342296;32;20149;-64
2022/08/08 04:42:24;;;;;;;6.68;4.32;;;10.40;99.90;;;;;;7339100;32;20132;-65
2022/08/08 04:46:26;;;;;;;6.32;4.35;;;10.50;99.90;;;;;;7338729;32;20130;-66
2022/08/08 04:50:31;;;;;;;9.35;4.30;;;10.60;99.90;;;;;;7338836;32;20140;-68
2022/08/08 04:54:39;;;;;;;5.55;4.25;;;10.60;99.90;;;;;;7336374;32;20175;-68
2022/08/08 04:58:43;;;;;;;5.00;3.87;;;10.80;99.90;;;;;;7334592;32;20159;-72
2022/08/08 05:02:48;;;;;;;6.55;5.18;;;11.20;99.90;;;;;;7337125;32;20194;-71
2022/08/08 05:06:53;;;;;;;5.10;4.00;;;11.30;99.90;;;;;;7335067;32;20198;-72
2022/08/08 05:11:01;;;;;;;4.30;3.72;;;11.40;99.90;;;;;;7337762;32;20203;-72
2022/08/08 05:15:03;;;;;;;10.38;5.80;;;11.30;99.90;;;;;;7331309;32;20249;-71
2022/08/08 05:19:24;;;;;;;8.07;4.15;;;11.40;99.90;;;;;;7338357;32;20483;-72
2022/08/08 05:23:46;;;;;;;6.05;4.00;;;11.50;99.90;;;;;;7342447;32;20135;-70
2022/08/08 05:28:04;;;;;;;6.12;4.35;;;11.60;99.90;;;;;;7336600;32;20646;-63
2022/08/08 05:32:08;;;;;;;5.62;4.25;;;11.70;99.90;;;;;;7335568;32;20187;-63
2022/08/08 05:36:15;;;;;;;7.05;5.22;;;11.80;99.90;;;;;;7333698;32;20198;-63
2022/08/08 05:40:28;;;;;;;10.80;7.30;;;12.00;99.90;;;;;;7331342;32;20153;-63
2022/08/08 05:44:39;;;;;;;10.32;5.90;;;12.20;99.90;;;;;;7341330;32;20208;-62
2022/08/08 05:48:42;;;;;;;11.45;6.30;;;12.30;99.90;;;;;;7339100;32;20107;-63
2022/08/08 05:52:52;;;;;;;9.00;5.72;;;12.50;99.90;;;;;;7343742;32;20191;-63
2022/08/08 05:56:55;;;;;;;8.85;6.70;;;12.70;99.90;;;;;;7333198;32;20194;-64
2022/08/08 06:01:00;;;;;;;9.57;6.28;;;13.00;99.90;;;;;;7324623;32;20118;-67
2022/08/08 06:05:16;;;;;;;7.65;5.35;;;13.20;99.90;;;;;;7323799;32;20281;-67
2022/08/08 06:09:38;;;;;;;6.05;5.15;;;13.40;99.90;;;;;;7315822;32;20285;-67
2022/08/08 06:14:04;;;;;;;9.20;5.22;;;13.60;99.90;;;;;;7321202;32;20370;-68
2022/08/08 06:18:17;;;;;;;8.63;5.55;;;13.80;99.90;;;;;;7313066;32;20885;-68
2022/08/08 06:22:23;;;;;;;9.18;5.62;;;14.00;99.90;;;;;;7337005;32;20178;-68
2022/08/08 06:26:50;;;;;;;7.87;5.05;;;14.30;99.90;;;;;;7337948;32;20142;-67
2022/08/08 06:30:55;;;;;;;7.32;5.53;;;14.50;99.90;;;;;;7339643;32;20154;-67
2022/08/08 06:35:02;;;;;;;7.57;5.25;;;14.70;99.90;;;;;;7338833;32;20192;-67
2022/08/08 06:39:28;;;;;;;11.90;5.20;;;15.00;99.90;;;;;;7346092;32;20142;-67
2022/08/08 06:43:36;;;;;;;6.55;5.03;;;15.20;99.90;;;;;;7341606;32;20121;-66
2022/08/08 06:47:38;;;;;;;8.13;5.25;;;15.40;99.90;;;;;;7344628;32;20138;-67
2022/08/08 06:52:00;;;;;;;9.23;5.07;;;15.70;99.90;;;;;;7345835;32;20111;-68
2022/08/08 06:56:02;;;;;;;6.22;4.62;;;15.90;99.90;;;;;;7341908;32;20111;-67
2022/08/08 07:00:06;;;;;;;10.30;5.35;;;16.10;99.90;;;;;;7343092;32;20285;-67
2022/08/08 07:04:35;;;;;;;10.27;5.10;;;16.20;99.90;;;;;;7342650;32;20534;-67
2022/08/08 07:09:02;;;;;;;8.95;5.25;;;16.40;99.90;;;;;;7343118;32;20107;-67
2022/08/08 07:13:06;;;;;;;7.72;4.87;;;16.60;99.90;;;;;;7344970;32;20107;-67
2022/08/08 07:17:18;;;;;;;6.32;4.60;;;16.70;99.90;;;;;;7338510;32;20269;-67
2022/08/08 07:21:28;;;;;;;5.75;4.70;;;16.80;99.90;;;;;;7328842;32;20302;-68
2022/08/08 07:25:37;;;;;;;5.78;4.50;;;17.00;99.90;;;;;;7339853;32;20594;-68
2022/08/08 07:29:46;;;;;;;5.62;4.75;;;17.10;99.90;;;;;;7340605;32;20111;-68
2022/08/08 07:34:10;;;;;;;6.68;4.20;;;17.20;99.90;;;;;;7338385;32;20272;-67
2022/08/08 07:38:50;;;;;;;7.40;4.80;;;17.40;99.90;;;;;;7340839;32;20127;-68
2022/08/08 07:42:55;;;;;;;6.97;4.20;;;17.60;99.90;;;;;;7337426;32;20741;-66
2022/08/08 07:46:57;;;;;;;5.37;4.12;;;17.80;99.90;;;;;;7340019;32;20228;-67
2022/08/08 07:50:59;;;;;;;5.75;3.95;;;18.00;99.90;;;;;;7337319;32;20217;-68
2022/08/08 07:55:04;;;;;;;4.75;3.97;;;18.20;99.90;;;;;;7341871;32;20115;-68
2022/08/08 07:59:13;;;;;;;6.55;4.30;;;18.40;99.90;;;;;;7342113;32;20134;-66
2022/08/08 08:03:31;;;;;;;8.65;4.53;;;18.40;99.90;;;;;;7335419;32;20126;-67
2022/08/08 08:08:01;;;;;;;7.25;4.05;;;18.60;99.90;;;;;;7337760;32;20592;-66
2022/08/08 08:12:04;;;;;;;8.18;4.40;;;18.70;99.90;;;;;;7324457;32;20221;-68
2022/08/08 08:16:17;;;;;;;9.73;4.62;;;18.80;99.90;;;;;;7337076;32;20127;-66
2022/08/08 08:20:22;;;;;;;6.37;4.07;;;19.00;99.90;;;;;;7343136;32;20111;-69
2022/08/08 08:24:31;;;;;;;8.57;4.18;;;19.30;99.90;;;;;;7340062;32;20213;-70
2022/08/08 08:28:55;;;;;;;6.90;3.97;;;19.60;99.90;;;;;;7337233;32;20172;-67
2022/08/08 08:32:57;;;;;;;5.93;3.95;;;19.80;99.90;;;;;;7331596;32;20226;-67
2022/08/08 08:37:19;;;;;;;6.43;3.55;;;19.90;99.90;;;;;;7336825;32;20198;-67
2022/08/08 08:41:22;;;;;;;5.68;3.67;;;20.30;99.90;;;;;;7334516;32;20232;-70
2022/08/08 08:45:26;;;;;;;5.93;3.03;;;20.60;99.90;;;;;;7341205;32;20186;-69
2022/08/08 08:49:27;;;;;;;10.25;3.40;;;21.60;99.90;;;;;;7336706;32;20292;-69
2022/08/08 08:53:40;;;;;;;6.68;3.20;;;22.30;99.90;;;;;;7330299;32;20508;-70
2022/08/08 08:58:04;;;;;;;5.40;2.75;;;23.00;99.90;;;;;;7333188;32;20103;-70
2022/08/08 09:02:19;;;;;;;4.35;3.08;;;24.10;99.90;;;;;;7337838;32;20469;-71
2022/08/08 09:06:28;;;;;;;6.22;3.20;;;25.20;99.90;;;;;;7334214;32;20413;-71
2022/08/08 09:10:38;;;;;;;7.45;3.00;;;25.50;99.90;;;;;;7326936;32;20121;-71
2022/08/08 09:14:43;;;;;;;12.70;3.40;;;25.70;98.20;;;;;;7339481;32;20242;-71
2022/08/08 09:18:48;;;;;;;;;;;26.20;96.90;;;;;;7322864;32;20189;-69
2022/08/08 09:22:54;;;;;;;5.35;2.95;;;26.60;95.20;;;;;;7342257;32;20669;-71
2022/08/08 09:27:12;;;;;;;6.07;2.97;;;26.80;94.90;;;;;;7332925;32;20230;-68
2022/08/08 09:31:53;;;;;;;7.07;2.92;;;26.60;93.00;;;;;;7337578;32;20103;-69
2022/08/08 09:36:00;;;;;;;3.90;2.58;;;26.70;92.20;;;;;;7340784;32;20122;-63
2022/08/08 09:40:05;;;;;;;4.80;2.80;;;27.00;91.90;;;;;;7338560;32;20119;-63
2022/08/08 09:44:22;;;;;;;6.37;3.20;;;27.30;86.70;;;;;;7336757;32;20099;-65
2022/08/08 09:48:37;;;;;;;6.62;2.85;;;27.20;87.60;;;;;;7334731;32;20754;-68
2022/08/08 09:52:49;;;;;;;4.78;2.67;;;27.40;90.10;;;;;;7338021;32;20107;-67
2022/08/08 09:57:02;;;;;;;5.70;2.58;;;27.40;87.50;;;;;;7337694;32;20233;-67
2022/08/08 10:01:09;;;;;;;10.25;3.20;;;27.30;89.90;;;;;;7331387;32;20186;-67
2022/08/08 10:05:21;;;;;;;6.82;2.70;;;27.50;86.00;;;;;;7340008;32;20170;-67
2022/08/08 10:09:33;;;;;;;5.47;2.42;;;27.60;85.40;;;;;;7337277;32;20111;-67
2022/08/08 10:13:58;;;;;;;6.30;2.75;;;28.20;88.20;;;;;;7342237;32;20202;-67
2022/08/08 10:18:00;;;;;;;8.20;3.00;;;28.20;83.50;;;;;;7343842;32;20228;-68
2022/08/08 10:22:18;;;;;;;4.07;2.55;;;28.20;83.00;;;;;;7342942;32;20162;-61
2022/08/08 10:26:28;;;;;;;6.40;2.50;;;28.30;88.80;;;;;;7347598;32;20178;-61
2022/08/08 10:30:56;;;;;;;4.30;2.33;;;28.10;85.00;;;;;;7341917;32;20944;-62
2022/08/08 10:35:14;;;;;;;7.95;2.30;;;28.40;84.10;;;;;;7341724;32;20111;-61
2022/08/08 10:39:43;;;;;;;4.65;1.98;;;28.20;83.20;;;;;;7339334;32;20103;-68
2022/08/08 10:43:57;;;;;;;4.45;2.70;;;27.80;75.90;;;;;;7335120;32;20186;-65
2022/08/08 10:47:59;;;;;;;4.28;2.00;;;27.70;75.30;;;;;;7341050;32;20319;-62
2022/08/08 10:52:02;;;;;;;3.50;2.20;;;27.50;78.80;;;;;;7345150;32;21190;-63
2022/08/08 10:56:04;;;;;;;4.60;1.90;;;27.70;81.30;;;;;;7341645;32;20532;-63
2022/08/08 11:00:10;;;;;;;4.62;2.05;;;27.70;85.00;;;;;;7336135;32;20189;-69
2022/08/08 11:04:13;;;;;;;4.80;2.17;;;27.70;78.60;;;;;;7343154;32;20260;-67
2022/08/08 11:08:25;;;;;;;3.83;2.08;;;27.60;77.40;;;;;;7339956;32;20520;-68
2022/08/08 11:12:58;;;;;;;3.50;1.83;;;27.40;83.00;;;;;;7333767;32;20194;-68
2022/08/08 11:17:22;;;;;;;4.35;1.90;;;27.40;81.40;;;;;;7336948;32;20213;-68
2022/08/08 11:21:47;;;;;;;5.55;2.22;;;27.50;79.30;;;;;;7335641;32;20587;-69
2022/08/08 11:25:57;;;;;;;3.70;1.92;;;27.40;81.60;;;;;;7338340;32;20174;-68
2022/08/08 11:30:08;;;;;;;4.35;2.30;;;27.20;77.40;;;;;;7334667;32;20550;-69
2022/08/08 11:34:23;;;;;;;6.15;2.20;;;27.20;79.50;;;;;;7339297;32;20115;-67
2022/08/08 11:38:45;;;;;;;3.95;1.87;;;27.20;78.80;;;;;;7337037;32;20135;-69
2022/08/08 11:42:57;;;;;;;3.58;2.05;;;27.30;76.40;;;;;;7340419;32;20192;-68
2022/08/08 11:46:59;;;;;;;4.62;1.90;;;27.10;77.20;;;;;;7338864;32;20135;-68
2022/08/08 11:51:02;;;;;;;3.00;1.70;;;27.20;76.90;;;;;;7337628;32;20234;-68
2022/08/08 11:55:26;;;;;;;2.87;2.15;;;27.10;76.10;;;;;;7342113;32;20766;-69
2022/08/08 11:59:33;;;;;;;5.10;2.08;;;27.00;82.70;;;;;;7339797;32;20589;-67
2022/08/08 12:03:55;;;;;;;6.20;2.40;;;27.20;74.70;;;;;;7337286;32;20274;-68
2022/08/08 12:08:01;;;;;;;5.50;2.45;;;27.50;77.80;;;;;;7336297;32;20212;-68
2022/08/08 12:12:05;;;;;;;3.78;2.30;;;27.20;79.00;;;;;;7339793;32;20206;-69
2022/08/08 12:16:19;;;;;;;5.45;2.42;;;26.90;78.40;;;;;;7338564;32;20115;-69
2022/08/08 12:20:38;;;;;;;3.05;2.22;;;27.10;79.30;;;;;;7335260;32;20292;-69
2022/08/08 12:24:48;;;;;;;5.65;2.20;;;26.90;78.30;;;;;;7335252;32;20203;-69
2022/08/08 12:28:57;;;;;;;4.27;1.97;;;27.00;77.50;;;;;;7337516;32;20146;-69
2022/08/08 12:33:00;;;;;;;4.28;2.22;;;26.90;81.20;;;;;;7339325;32;20111;-69
2022/08/08 12:37:19;;;;;;;5.05;2.40;;;27.10;80.60;;;;;;7339953;32;20123;-68
2022/08/08 12:41:21;;;;;;;3.40;2.10;;;26.80;78.10;;;;;;7339586;32;20630;-68
2022/08/08 12:45:45;;;;;;;3.65;2.30;;;27.10;77.70;;;;;;7332104;32;20669;-69
2022/08/08 12:50:01;;;;;;;2.62;2.00;;;27.10;79.30;;;;;;7336148;32;20381;-69
2022/08/08 12:54:03;;;;;;;6.55;2.90;;;27.00;78.00;;;;;;7333152;32;20134;-73
2022/08/08 12:58:27;;;;;;;6.43;2.22;;;27.30;76.00;;;;;;7337670;32;20597;-68
2022/08/08 13:02:33;;;;;;;3.65;2.45;;;27.30;76.10;;;;;;7334433;32;20244;-68
2022/08/08 13:06:36;;;;;;;4.32;2.55;;;26.50;78.20;;;;;;7338429;32;20526;-68
2022/08/08 13:10:53;;;;;;;5.80;2.65;;;26.60;80.90;;;;;;7331794;32;20356;-70
2022/08/08 13:15:04;;;;;;;4.43;2.30;;;26.70;80.30;;;;;;7336480;32;20095;-67
2022/08/08 13:19:08;;;;;;;4.43;2.62;;;27.00;81.60;;;;;;7333313;32;20305;-68
2022/08/08 13:23:17;;;;;;;5.50;2.70;;;26.80;78.60;;;;;;7340578;32;20506;-62
2022/08/08 13:27:38;;;;;;;5.12;2.33;;;26.90;78.60;;;;;;7336272;32;20131;-63
2022/08/08 13:31:49;;;;;;;5.85;2.25;;;26.90;75.30;;;;;;7341600;32;20642;-63
2022/08/08 13:35:54;;;;;;;4.70;2.12;;;27.00;74.70;;;;;;7338700;32;20297;-63
2022/08/08 13:40:01;;;;;;;3.10;2.00;;;26.90;81.40;;;;;;7336301;32;20940;-65
2022/08/08 13:44:06;;;;;;;5.93;2.50;;;27.00;82.10;;;;;;7339810;32;20545;-62
2022/08/08 13:48:19;;;;;;;4.57;2.28;;;27.20;80.40;;;;;;7340623;32;20194;-69
2022/08/08 13:52:26;;;;;;;4.78;2.62;;;27.10;77.40;;;;;;7339708;32;20115;-69
2022/08/08 13:56:38;;;;;;;7.85;2.72;;;26.70;77.10;;;;;;7353857;32;20207;-69
2022/08/08 14:01:12;;;;;;;3.50;2.40;;;26.60;77.70;;;;;;7350066;32;20219;-68
2022/08/08 14:05:15;;;;;;;3.15;2.28;;;26.70;78.00;;;;;;7349232;32;20185;-68
2022/08/08 14:09:32;;;;;;;5.28;2.33;;;27.00;81.30;;;;;;7350633;32;20122;-68
2022/08/08 14:13:54;;;;;;;5.05;2.60;;;27.20;81.00;;;;;;7344322;32;20518;-69
2022/08/08 14:18:05;;;;;;;4.85;2.15;;;26.80;76.70;;;;;;7348979;32;20099;-68
2022/08/08 14:22:28;;;;;;;3.80;1.90;;;26.50;79.50;;;;;;7350337;32;20137;-69
2022/08/08 14:26:30;;;;;;;2.92;2.40;;;26.70;79.00;;;;;;7346072;32;20538;-69
2022/08/08 14:30:34;;;;;;;6.80;2.37;;;26.70;77.00;;;;;;7340039;32;20118;-68
2022/08/08 14:34:36;;;;;;;7.20;2.47;;;26.60;79.00;;;;;;7344262;32;20121;-68
2022/08/08 14:38:38;;;;;;;4.05;2.50;;;26.50;79.60;;;;;;7343700;32;20742;-65
2022/08/08 14:42:55;;;;;;;5.12;2.37;;;26.60;78.00;;;;;;7341413;32;20167;-60
2022/08/08 14:47:05;;;;;;;5.37;2.05;;;27.00;76.90;;;;;;7337592;32;20103;-60
2022/08/08 14:51:24;;;;;;;4.37;2.35;;;27.00;77.40;;;;;;7338283;32;20190;-63
2022/08/08 14:55:33;;;;;;;4.78;2.17;;;26.80;77.50;;;;;;7341188;32;20201;-60
2022/08/08 14:59:43;;;;;;;5.82;2.53;;;26.70;76.40;;;;;;7345287;32;20417;-60
2022/08/08 15:03:57;;;;;;;3.83;2.10;;;26.30;77.80;;;;;;7338514;32;20256;-60
2022/08/08 15:08:09;;;;;;;3.17;1.85;;;26.50;77.30;;;;;;7338813;32;20212;-61
2022/08/08 15:12:31;;;;;;;2.53;1.90;;;26.20;77.70;;;;;;7342774;32;20916;-67
2022/08/08 15:16:33;;;;;;;2.72;1.95;;;26.30;80.80;;;;;;7343249;32;20273;-61
2022/08/08 15:20:35;;;;;;;4.32;2.10;;;26.30;76.50;;;;;;7343739;32;20514;-60
2022/08/08 15:24:38;;;;;;;4.00;1.73;;;26.20;76.90;;;;;;7340694;32;20143;-67
2022/08/08 15:28:40;;;;;;;3.60;2.03;;;26.10;76.70;;;;;;7342644;32;20515;-68
2022/08/08 15:32:41;;;;;;;3.15;1.60;;;25.90;77.90;;;;;;7342608;32;20191;-68
2022/08/08 15:36:46;;;;;;;7.78;6.70;;;25.70;77.20;;;;;;7341575;32;20285;-67
2022/08/08 15:40:47;;;;;;;4.62;2.00;;;25.60;78.40;;;;;;7342267;32;20110;-68
2022/08/08 15:44:49;;;;;;;2.75;1.50;;;25.70;79.00;;;;;;7343298;32;20302;-67
2022/08/08 15:48:51;;;;;;;3.10;1.73;;;25.70;78.30;;;;;;7343759;32;20271;-67
2022/08/08 15:52:53;;;;;;;2.92;1.83;;;25.40;79.50;;;;;;7342670;32;20584;-67
2022/08/08 15:56:56;;;;;;;4.07;1.90;;;25.30;78.30;;;;;;7342194;32;20428;-67
2022/08/08 16:00:58;;;;;;;3.17;1.67;;;25.00;80.80;;;;;;7343632;32;20107;-67
2022/08/08 16:05:00;;;;;;;3.70;1.80;;;25.00;80.10;;;;;;7342476;32;20129;-67
2022/08/08 16:09:02;;;;;;;3.37;2.05;;;25.10;79.80;;;;;;7343191;32;20293;-67
2022/08/08 16:13:24;;;;;;;3.75;1.80;;;24.90;80.10;;;;;;7339645;32;20301;-67
2022/08/08 16:17:43;;;;;;;5.70;3.40;;;25.00;80.80;;;;;;7331383;32;20174;-67
2022/08/08 16:22:05;;;;;;;3.62;1.85;;;25.00;80.80;;;;;;7341265;32;20160;-68
2022/08/08 16:26:07;;;;;;;4.70;1.58;;;24.80;82.00;;;;;;7334375;32;20197;-68
2022/08/08 16:30:20;;;;;;;4.90;2.00;;;24.80;81.30;;;;;;7334262;32;20247;-66
2022/08/08 16:34:37;;;;;;;2.30;1.42;;;24.70;81.80;;;;;;7344415;32;20144;-67
2022/08/08 16:38:40;;;;;;;4.80;1.98;;;24.60;83.20;;;;;;7342813;32;20152;-68
2022/08/08 16:42:54;;;;;;;4.50;2.12;;;24.50;83.10;;;;;;7348266;32;20124;-67
2022/08/08 16:46:56;;;;;;;3.08;1.50;;;24.30;82.10;;;;;;7342114;32;20127;-68
2022/08/08 16:50:59;;;;;;;2.92;1.42;;;24.20;84.00;;;;;;7341690;32;20112;-67
2022/08/08 16:55:01;;;;;;;3.67;1.60;;;24.20;84.50;;;;;;7342972;32;20104;-68
2022/08/08 16:59:22;;;;;;;2.30;1.25;;;24.20;84.30;;;;;;7341967;32;20246;-67
2022/08/08 17:03:41;;;;;;;3.72;1.85;;;24.10;84.30;;;;;;7343620;32;20096;-69
2022/08/08 17:08:00;;;;;;;4.12;1.58;;;24.20;84.60;;;;;;7343181;32;20211;-69
2022/08/08 17:12:02;;;;;;;1.75;1.50;;;24.10;84.90;;;;;;7340654;32;20126;-67
2022/08/08 17:16:04;;;;;;;2.90;1.40;;;24.10;85.20;;;;;;7337524;32;20419;-67
2022/08/08 17:20:15;;;;;;;2.47;1.60;;;24.00;85.80;;;;;;7334595;32;20118;-72
2022/08/08 17:24:18;;;;;;;3.75;1.50;;;24.00;85.40;;;;;;7344603;32;20484;-71
2022/08/08 17:28:28;;;;;;;4.55;1.92;;;23.90;86.40;;;;;;7343280;32;20160;-71
2022/08/08 17:32:36;;;;;;;3.83;1.60;;;23.90;86.60;;;;;;7338241;32;20244;-71
2022/08/08 17:36:58;;;;;;;2.45;1.50;;;23.80;86.40;;;;;;7340758;32;20796;-71
2022/08/08 17:41:04;;;;;;;4.32;1.90;;;23.80;86.10;;;;;;7342991;32;20498;-71
2022/08/08 17:45:09;;;;;;;2.03;1.40;;;23.60;87.80;;;;;;7297485;32;20174;-68
2022/08/08 17:49:31;;;;;;;3.70;1.40;;;23.50;88.90;;;;;;7311783;32;20099;-71
2022/08/08 17:53:44;;;;;;;4.70;1.70;;;23.50;89.20;;;;;;7307087;32;20286;-71
2022/08/08 17:57:58;;;;;;;3.45;1.60;;;23.50;89.40;;;;;;7296903;32;20535;-72
2022/08/08 18:02:03;;;;;;;3.10;1.42;;;23.40;90.00;;;;;;7307639;32;20142;-72
2022/08/08 18:06:11;;;;;;;2.95;1.50;;;23.30;89.90;;;;;;7315107;32;20087;-70
2022/08/08 18:10:33;;;;;;;1.83;1.50;;;23.10;90.60;;;;;;7304861;32;20205;-70
2022/08/08 18:14:36;;;;;;;4.32;1.75;;;23.00;90.90;;;;;;7300902;32;21049;-65
2022/08/08 18:18:38;;;;;;;2.47;1.48;;;23.00;91.50;;;;;;7315792;32;20472;-68
2022/08/08 18:22:53;;;;;;;3.65;1.30;;;22.90;91.30;;;;;;7309852;32;20225;-69
2022/08/08 18:26:57;;;;;;;4.53;1.50;;;22.80;92.00;;;;;;7310065;32;20706;-69
2022/08/08 18:30:59;;;;;;;3.45;1.12;;;22.60;92.20;;;;;;7315465;32;20239;-67
2022/08/08 18:35:03;;;;;;;3.05;1.40;;;22.50;92.50;;;;;;7313382;32;20203;-61
2022/08/08 18:39:24;;;;;;;2.37;1.40;;;22.40;92.90;;;;;;7316501;32;20605;-61
2022/08/08 18:43:29;;;;;;;3.33;1.48;;;22.20;93.40;;;;;;7320104;32;20229;-67
2022/08/08 18:47:44;;;;;;;2.47;1.25;;;22.00;94.50;;;;;;7314613;32;20357;-70
2022/08/08 18:51:45;;;;;;;2.58;1.40;;;21.80;95.30;;;;;;7322912;32;20107;-69
2022/08/08 18:55:55;;;;;;;2.15;1.40;;;21.70;95.70;;;;;;7320343;32;20201;-70
2022/08/08 19:00:00;;;;;;;4.75;1.45;;;21.60;96.20;;;;;;7319534;32;20236;-70
2022/08/08 19:04:02;;;;;;;2.60;1.12;;;21.30;98.20;;;;;;7313464;32;20519;-70
2022/08/08 19:08:21;;;;;;;4.18;1.80;;;21.10;99.20;;;;;;7317961;32;20205;-73
2022/08/08 19:12:29;;;;;;;4.68;1.52;;;21.00;99.50;;;;;;7316329;32;20210;-70
2022/08/08 19:16:32;;;;;;;2.53;1.30;;;20.90;99.90;;;;;;7312789;32;20131;-70
2022/08/08 19:20:35;;;;;;;3.55;1.75;;;20.60;99.90;;;;;;7319471;32;20186;-68
2022/08/08 19:24:39;;;;;;;4.68;1.55;;;20.50;99.90;;;;;;7317314;32;20609;-68
2022/08/08 19:29:03;;;;;;;2.65;1.30;;;20.30;99.90;;;;;;7312990;32;20127;-68
2022/08/08 19:33:05;;;;;;;5.32;1.60;;;20.10;99.90;;;;;;7318918;32;20116;-69
2022/08/08 19:37:10;;;;;;;5.97;1.90;;;19.90;99.90;;;;;;7314424;32;20123;-67
2022/08/08 19:41:17;;;;;;;3.15;1.58;;;19.70;99.90;;;;;;7312151;32;20130;-69
2022/08/08 19:45:22;;;;;;;2.83;1.40;;;19.60;99.90;;;;;;7312683;32;20104;-66
2022/08/08 19:49:43;;;;;;;4.03;1.73;;;19.40;99.90;;;;;;7315161;32;20190;-66
2022/08/08 19:54:01;;;;;;;6.35;1.77;;;19.30;99.90;;;;;;7316176;32;20124;-68
2022/08/08 19:58:03;;;;;;;5.82;1.87;;;19.00;99.90;;;;;;7313954;32;20621;-67
2022/08/08 20:02:08;;;;;;;5.07;1.77;;;18.90;99.90;;;;;;7317929;32;20213;-68
2022/08/08 20:06:11;;;;;;;7.62;1.62;;;18.70;99.90;;;;;;7314949;32;20525;-67
2022/08/08 20:10:17;;;;;;;4.37;1.65;;;18.60;99.90;;;;;;7311365;32;20118;-67
2022/08/08 20:14:19;;;;;;;5.55;1.67;;;18.40;99.90;;;;;;7319107;32;20790;-67
2022/08/08 20:18:36;;;;;;;6.28;1.95;;;18.30;99.90;;;;;;7314857;32;20235;-67
2022/08/08 20:22:54;;;;;;;8.73;1.92;;;18.20;99.90;;;;;;7312652;32;20329;-68
2022/08/08 20:26:57;;;;;;;3.55;1.90;;;18.00;99.90;;;;;;7312500;32;20228;-69
2022/08/08 20:30:59;;;;;;;4.50;1.80;;;17.80;99.90;;;;;;7315517;32;20088;-68
2022/08/08 20:35:02;;;;;;;7.25;2.10;;;17.70;99.90;;;;;;7314455;32;20240;-68
2022/08/08 20:39:05;;;;;;;5.47;2.15;;;17.60;99.90;;;;;;7312090;32;20128;-68
2022/08/08 20:43:07;;;;;;;3.62;2.47;;;17.40;99.90;;;;;;7315587;32;20543;-67
2022/08/08 20:47:24;;;;;;;6.60;2.12;;;17.30;99.90;;;;;;7294803;32;20267;-66
2022/08/08 20:51:26;;;;;;;5.80;1.92;;;17.10;99.90;;;;;;7310030;32;20128;-67
2022/08/08 20:55:33;;;;;;;4.30;2.08;;;17.00;99.90;;;;;;7313630;32;20215;-65
2022/08/08 20:59:43;;;;;;;3.95;2.25;;;17.00;99.90;;;;;;7314594;32;20256;-68
2022/08/08 21:03:47;;;;;;;4.45;2.10;;;16.90;99.90;;;;;;7314329;32;20329;-68
2022/08/08 21:08:02;;;;;;;4.22;2.05;;;16.90;99.90;;;;;;7312128;32;20191;-68
2022/08/08 21:12:25;;;;;;;3.12;1.62;;;16.90;99.90;;;;;;7310592;32;20200;-68
2022/08/08 21:16:34;;;;;;;4.68;2.97;;;16.80;99.90;;;;;;7309170;32;20297;-68
2022/08/08 21:20:36;;;;;;;5.22;2.20;;;16.60;99.90;;;;;;7306621;32;20243;-67
2022/08/08 21:24:38;;;;;;;8.23;2.20;;;16.60;99.90;;;;;;7311700;32;20099;-68
2022/08/08 21:28:42;;;;;;;5.47;2.10;;;16.50;99.90;;;;;;7312525;32;20182;-68
2022/08/08 21:32:47;;;;;;;3.15;2.28;;;16.40;99.90;;;;;;7316424;32;20096;-67
2022/08/08 21:36:54;;;;;;;6.50;2.28;;;16.30;99.90;;;;;;7312249;32;20237;-67
2022/08/08 21:40:59;;;;;;;3.42;2.10;;;16.20;99.90;;;;;;7306355;32;20132;-65
2022/08/08 21:45:01;;;;;;;5.60;2.28;;;16.10;99.90;;;;;;7316948;32;20631;-65
2022/08/08 21:49:23;;;;;;;4.15;2.17;;;16.00;99.90;;;;;;7309359;32;20092;-66
2022/08/08 21:53:29;;;;;;;5.05;2.33;;;15.90;99.90;;;;;;7311605;32;20270;-66
2022/08/08 21:57:52;;;;;;;5.22;2.10;;;15.90;99.90;;;;;;7312224;32;20146;-65
2022/08/08 22:02:10;;;;;;;8.43;2.40;;;15.80;99.90;;;;;;7309699;32;20152;-63